Clifton Park, NY

12:48 AM EST on February 10, 2016 (GMT -0500)
Shenendehowa | | Change Station
CLOSE
Current Station
Personal Weather Station
Location: Clifton Park, NY
Elevation: 325 ft
Nearby Weather Stations

Elev 325 ft 42.86 °N, 73.80 °W | Updated 11 minutes ago

Overcast
Overcast
24.8 °F
Feels Like 25 °F
N
0.0
Wind Variable Wind from ESE

Today
High -- | Low -- °F
--% Chance of Precip.
Yesterday
High -- | Low -- °F
Precip. -- in
Pressure 29.58 in
Visibility 10.0 miles
Clouds Mostly Cloudy 4200 ft
Mostly Cloudy 8500 ft
Mostly Cloudy 11000 ft
Windchill 25 °F
Dew Point 23 °F
Humidity 93%
Rainfall 0.00 in
Snow Depth Not available.
6:59 AM 5:19 PM
Waxing Crescent, 4% visible
METAR KALB 100451Z 17003KT 10SM BKN042 BKN085 BKN110 M03/M05 A2956 RMK AO2 SNE03B22E33 SLP015 P0000 T10281050 400001050 $
Pressure 29.58 in
Visibility 10.0 miles
Clouds Mostly Cloudy 4200 ft
Mostly Cloudy 8500 ft
Mostly Cloudy 11000 ft
Windchill 25 °F
Dew Point 23 °F
Humidity 93%
Rainfall 0.00 in
Snow Depth Not available.
6:59 AM 5:19 PM
Waxing Crescent, 4% visible
METAR KALB 100451Z 17003KT 10SM BKN042 BKN085 BKN110 M03/M05 A2956 RMK AO2 SNE03B22E33 SLP015 P0000 T10281050 400001050 $

10-Day Weather Forecast

Almanac

Astronomy

Feb. 10, 2016 Rise Set
Actual Time
Civil Twilight
Nautical Twilight
Astronomical Twilight
Moon
Length of Visible Light
Length of Day
Tomorrow will be .
, % of the Moon is Illuminated

Today's Extremes

State Highs State Lows

Community

WunderPhotos

Upload Photos

1,891,823 photos uploaded!

WunderBlog® & News

Nearby

Air Quality

  Air Quality AQ Index Pollutant
Not available.

Snow Depth

Station Depth Elevation

Earthquake Activity

City Distance Mag. Time & Date
Minimum magnitude displayed is 2.5.

Coastal Water Temperatures

Place Temperature

Stations

Nearby Weather Stations

Station Location Temp. Windchill Dew Point Humidity Wind Precip. Elev Updated Type
                   

Watches & Warnings

There are currently no watches in effect.